createdAt,value
2022-09-11T00:00:35.176Z,22.11
2022-09-11T00:03:02.939Z,22.27
2022-09-11T00:05:31.138Z,22.26
2022-09-11T00:07:58.415Z,22.23
2022-09-11T00:10:25.781Z,22.32
2022-09-11T00:12:54.296Z,22.14
2022-09-11T00:15:21.606Z,22.06
2022-09-11T00:17:49.208Z,21.99
2022-09-11T00:20:16.684Z,22.03
2022-09-11T00:22:44.038Z,22.12
2022-09-11T00:25:11.637Z,22.25
2022-09-11T00:27:39.169Z,22.37
2022-09-11T00:30:06.981Z,22.29
2022-09-11T00:32:34.308Z,22.34
2022-09-11T00:35:02.532Z,22.41
2022-09-11T00:37:29.885Z,22.05
2022-09-11T00:39:57.487Z,22.03
2022-09-11T00:45:35.598Z,21.99
2022-09-11T00:48:04.018Z,21.93
2022-09-11T00:50:32.653Z,21.78
2022-09-11T00:53:10.040Z,21.52
2022-09-11T00:55:41.772Z,21.60
2022-09-11T00:58:14.498Z,21.57
2022-09-11T01:00:44.696Z,21.55
2022-09-11T01:03:12.920Z,21.49
2022-09-11T01:05:43.470Z,21.44
2022-09-11T01:08:11.387Z,21.39
2022-09-11T01:10:56.391Z,21.41
2022-09-11T01:14:00.564Z,21.42
2022-09-11T01:16:53.194Z,21.50
2022-09-11T01:19:55.171Z,21.52
2022-09-11T01:22:55.298Z,21.59
2022-09-11T01:25:37.586Z,21.59
2022-09-11T01:28:13.776Z,21.57
2022-09-11T01:30:47.509Z,21.63
2022-09-11T01:33:19.509Z,21.63
2022-09-11T01:35:56.100Z,21.64
2022-09-11T01:38:33.759Z,21.56
2022-09-11T01:41:11.453Z,21.90
2022-09-11T01:43:47.041Z,22.06
2022-09-11T01:46:24.668Z,22.01
2022-09-11T01:49:11.661Z,21.73
2022-09-11T01:51:41.293Z,21.66
2022-09-11T01:54:16.979Z,21.54
2022-09-11T01:56:52.752Z,21.56
2022-09-11T01:59:27.875Z,21.57
2022-09-11T02:02:06.671Z,21.19
2022-09-11T02:04:39.028Z,21.09
2022-09-11T02:07:08.801Z,20.99
2022-09-11T02:09:44.300Z,20.80
2022-09-11T02:12:16.006Z,20.87
2022-09-11T02:14:47.480Z,21.07
2022-09-11T02:17:24.577Z,21.37
2022-09-11T02:19:54.636Z,21.48
2022-09-11T02:22:22.696Z,21.47
2022-09-11T02:24:50.681Z,21.34
2022-09-11T02:27:24.344Z,21.15
2022-09-11T02:29:53.871Z,21.54
2022-09-11T02:32:22.811Z,21.40
2022-09-11T02:34:53.147Z,21.32
2022-09-11T02:37:45.691Z,21.25
2022-09-11T02:40:38.801Z,21.14
2022-09-11T02:43:36.014Z,21.12
2022-09-11T02:46:44.676Z,21.51
2022-09-11T02:49:26.538Z,21.46
2022-09-11T02:52:20.796Z,21.20
2022-09-11T02:54:57.068Z,20.90
2022-09-11T02:57:35.026Z,20.82
2022-09-11T03:00:06.976Z,20.89
2022-09-11T03:02:39.603Z,20.93
2022-09-11T03:05:08.466Z,21.28
2022-09-11T03:07:35.983Z,21.29
2022-09-11T03:10:04.050Z,21.27
2022-09-11T03:12:32.003Z,21.36
2022-09-11T03:14:59.355Z,21.19
2022-09-11T03:17:27.084Z,20.81
2022-09-11T03:19:54.324Z,20.93
2022-09-11T03:22:21.651Z,20.99
2022-09-11T03:24:49.176Z,20.86
2022-09-11T03:27:17.282Z,20.86
2022-09-11T03:32:12.716Z,20.85
2022-09-11T03:34:40.093Z,20.68
2022-09-11T03:37:08.853Z,20.75
2022-09-11T03:39:36.248Z,20.61
2022-09-11T03:42:04.332Z,20.93
2022-09-11T03:44:32.037Z,20.58
2022-09-11T03:47:00.297Z,20.57
2022-09-11T03:49:28.021Z,20.91
2022-09-11T03:51:56.970Z,20.79
2022-09-11T03:54:24.614Z,20.69
2022-09-11T03:56:51.947Z,20.68
2022-09-11T03:59:20.366Z,20.76
2022-09-11T04:01:50.026Z,20.80
2022-09-11T04:04:17.620Z,20.81
2022-09-11T04:06:46.560Z,20.74
2022-09-11T04:09:14.017Z,20.57
2022-09-11T04:11:41.329Z,20.69
2022-09-11T04:14:16.413Z,20.44
2022-09-11T04:16:44.562Z,20.30
2022-09-11T04:19:13.350Z,20.32
2022-09-11T04:21:42.636Z,20.39
2022-09-11T04:24:10.238Z,20.21
2022-09-11T04:26:38.067Z,20.33
2022-09-11T04:29:26.564Z,20.07
2022-09-11T04:31:56.217Z,20.10
2022-09-11T04:34:26.973Z,20.14
2022-09-11T04:36:56.150Z,20.23
2022-09-11T04:39:24.052Z,20.29
2022-09-11T04:41:51.409Z,20.36
2022-09-11T04:44:20.112Z,20.43
2022-09-11T04:46:47.814Z,20.52
2022-09-11T04:49:15.524Z,20.33
2022-09-11T04:51:45.424Z,20.06
2022-09-11T04:54:18.148Z,20.15
2022-09-11T04:56:46.360Z,20.06
2022-09-11T04:59:17.961Z,19.86
2022-09-11T05:01:50.673Z,19.95
2022-09-11T05:04:25.752Z,19.74
2022-09-11T05:06:55.388Z,19.63
2022-09-11T05:09:22.667Z,19.70
2022-09-11T05:11:50.607Z,19.80
2022-09-11T05:14:18.507Z,19.54
2022-09-11T05:16:48.867Z,19.82
2022-09-11T05:19:19.251Z,19.58
2022-09-11T05:21:47.557Z,19.65
2022-09-11T05:24:15.065Z,19.82
2022-09-11T05:26:42.405Z,19.92
2022-09-11T05:29:15.186Z,19.94
2022-09-11T05:31:48.147Z,19.97
2022-09-11T05:34:18.177Z,20.15
2022-09-11T05:36:45.988Z,19.99
2022-09-11T05:39:13.434Z,20.15
2022-09-11T05:41:42.405Z,20.02
2022-09-11T05:44:09.750Z,19.94
2022-09-11T05:46:39.046Z,20.16
2022-09-11T05:49:07.472Z,20.23
2022-09-11T05:51:37.635Z,20.63
2022-09-11T05:54:06.031Z,20.73
2022-09-11T05:56:34.835Z,20.57
2022-09-11T05:59:14.199Z,20.23
2022-09-11T06:01:44.844Z,20.38
2022-09-11T06:04:20.256Z,20.50
2022-09-11T06:06:50.090Z,20.60
2022-09-11T06:09:19.404Z,20.48
2022-09-11T06:11:47.432Z,20.49
2022-09-11T06:14:15.531Z,20.82
2022-09-11T06:16:45.103Z,20.86
2022-09-11T06:19:16.928Z,21.19
2022-09-11T06:21:45.635Z,21.38
2022-09-11T06:24:28.146Z,21.28
2022-09-11T06:26:56.663Z,21.14
2022-09-11T06:29:25.496Z,21.12
2022-09-11T06:31:54.739Z,21.04
2022-09-11T06:34:25.433Z,21.19
2022-09-11T06:36:53.387Z,21.40
2022-09-11T06:39:26.597Z,21.44
2022-09-11T06:41:54.145Z,21.25
2022-09-11T06:44:27.532Z,21.26
2022-09-11T06:46:59.345Z,21.56
2022-09-11T06:49:27.363Z,21.74
2022-09-11T06:52:13.192Z,21.87
2022-09-11T06:54:45.401Z,22.12
2022-09-11T06:57:15.661Z,21.80
2022-09-11T06:59:43.474Z,22.13
2022-09-11T07:02:11.056Z,22.25
2022-09-11T07:04:38.968Z,22.48
2022-09-11T07:07:07.667Z,22.61
2022-09-11T07:09:36.959Z,22.54
2022-09-11T07:12:04.496Z,22.54
2022-09-11T07:14:32.914Z,22.74
2022-09-11T07:17:09.593Z,22.57
2022-09-11T07:19:36.986Z,22.67
2022-09-11T07:22:04.752Z,22.99
2022-09-11T07:24:33.446Z,23.04
2022-09-11T07:27:01.615Z,23.09
2022-09-11T07:29:33.267Z,23.05
2022-09-11T07:32:01.693Z,23.31
2022-09-11T07:34:29.521Z,23.19
2022-09-11T07:36:59.081Z,23.40
2022-09-11T07:39:27.583Z,23.65
2022-09-11T07:42:04.748Z,23.71
2022-09-11T07:44:36.114Z,23.52
2022-09-11T07:47:05.471Z,23.95
2022-09-11T07:49:37.900Z,23.48
2022-09-11T07:52:06.588Z,23.76
2022-09-11T07:54:44.506Z,23.78
2022-09-11T07:57:14.704Z,23.79
2022-09-11T07:59:42.880Z,23.97
2022-09-11T08:02:11.724Z,23.63
2022-09-11T08:04:40.429Z,23.47
2022-09-11T08:07:08.053Z,23.73
2022-09-11T08:09:36.007Z,23.77
2022-09-11T08:12:05.891Z,23.74
2022-09-11T08:14:36.916Z,24.05
2022-09-11T08:17:21.262Z,24.03
2022-09-11T08:19:49.168Z,24.09
2022-09-11T08:22:16.821Z,24.24
2022-09-11T08:24:46.198Z,24.24
2022-09-11T08:27:17.037Z,24.58
2022-09-11T08:29:46.924Z,24.60
2022-09-11T08:32:14.972Z,24.49
2022-09-11T08:34:42.724Z,24.43
2022-09-11T08:37:10.610Z,24.54
2022-09-11T08:39:39.467Z,24.62
2022-09-11T08:42:14.067Z,24.73
2022-09-11T08:44:53.067Z,24.69
2022-09-11T08:47:33.516Z,24.50
2022-09-11T08:50:07.540Z,24.66
2022-09-11T08:52:37.190Z,24.78
2022-09-11T08:55:13.680Z,24.82
2022-09-11T08:58:00.585Z,24.83
2022-09-11T09:00:38.068Z,24.71
2022-09-11T09:03:32.429Z,24.92
2022-09-11T09:06:25.332Z,24.92
2022-09-11T09:09:07.795Z,25.05
2022-09-11T09:11:54.316Z,24.89
2022-09-11T09:14:22.165Z,24.94
2022-09-11T09:16:55.770Z,24.97
2022-09-11T09:19:29.622Z,25.21
2022-09-11T09:22:06.340Z,25.22
2022-09-11T09:24:50.771Z,25.27
2022-09-11T09:27:29.852Z,25.46
2022-09-11T09:30:02.613Z,25.56
2022-09-11T09:32:34.464Z,25.54
2022-09-11T09:35:10.816Z,25.46
2022-09-11T09:37:38.623Z,25.50
2022-09-11T09:40:12.813Z,25.27
2022-09-11T09:42:52.199Z,25.70
2022-09-11T09:45:32.512Z,25.67
2022-09-11T09:48:01.261Z,25.65
2022-09-11T09:50:32.128Z,25.71
2022-09-11T09:53:36.566Z,25.81
2022-09-11T09:56:06.088Z,25.90
2022-09-11T09:58:39.251Z,26.01
2022-09-11T10:01:39.658Z,26.01
2022-09-11T10:04:15.169Z,26.10
2022-09-11T10:06:45.627Z,26.15
2022-09-11T10:09:23.450Z,25.44
2022-09-11T10:11:54.013Z,25.92
2022-09-11T10:14:49.148Z,26.20
2022-09-11T10:17:23.881Z,26.10
2022-09-11T10:19:55.224Z,26.33
2022-09-11T10:22:29.079Z,26.57
2022-09-11T10:25:11.641Z,26.46
2022-09-11T10:27:45.103Z,26.60
2022-09-11T10:30:28.789Z,26.97
2022-09-11T10:33:03.111Z,26.69
2022-09-11T10:35:34.545Z,26.43
2022-09-11T10:38:08.201Z,27.07
2022-09-11T10:40:35.584Z,27.15
2022-09-11T10:43:03.284Z,27.00
2022-09-11T10:45:31.599Z,26.89
2022-09-11T10:48:15.367Z,27.10
2022-09-11T10:50:45.054Z,26.91
2022-09-11T10:53:20.183Z,27.05
2022-09-11T10:55:58.844Z,27.08
2022-09-11T10:58:33.802Z,27.23
2022-09-11T11:01:02.329Z,27.36
2022-09-11T11:03:29.921Z,27.52
2022-09-11T11:06:34.397Z,27.86
2022-09-11T11:09:25.583Z,27.90
2022-09-11T11:12:13.864Z,28.38
2022-09-11T11:15:04.492Z,28.14
2022-09-11T11:17:54.103Z,27.79
2022-09-11T11:20:26.641Z,27.42
2022-09-11T11:23:05.955Z,28.29
2022-09-11T11:26:04.506Z,27.75
2022-09-11T11:28:56.559Z,28.08
2022-09-11T11:31:52.924Z,28.58
2022-09-11T11:34:39.338Z,28.38
2022-09-11T11:37:17.873Z,28.21
2022-09-11T11:40:13.906Z,28.49
2022-09-11T11:43:03.464Z,28.43
2022-09-11T11:45:53.509Z,28.77
2022-09-11T11:48:29.368Z,28.42
2022-09-11T11:51:06.966Z,28.96
2022-09-11T11:53:48.293Z,28.84
2022-09-11T11:56:23.769Z,28.83
2022-09-11T11:58:55.638Z,28.60
2022-09-11T12:01:32.376Z,28.89
2022-09-11T12:04:10.463Z,28.55
2022-09-11T12:06:37.688Z,29.24
2022-09-11T12:09:08.049Z,29.78
2022-09-11T12:11:36.127Z,29.76
2022-09-11T12:14:04.636Z,30.09
2022-09-11T12:16:34.193Z,30.21
2022-09-11T12:19:04.239Z,30.02
2022-09-11T12:21:31.766Z,29.55
2022-09-11T12:23:59.857Z,29.98
2022-09-11T12:26:28.065Z,29.74
2022-09-11T12:29:22.099Z,30.17
2022-09-11T12:31:49.569Z,30.16
2022-09-11T12:34:19.625Z,30.12
2022-09-11T12:37:01.940Z,30.05
2022-09-11T12:39:46.761Z,30.54
2022-09-11T12:42:39.891Z,30.16
2022-09-11T12:45:38.523Z,30.45
2022-09-11T12:48:16.388Z,30.48
2022-09-11T12:50:54.553Z,30.21
2022-09-11T12:53:28.293Z,30.54
2022-09-11T12:56:04.498Z,30.09
2022-09-11T12:58:41.257Z,30.50
2022-09-11T13:01:13.534Z,30.21
2022-09-11T13:04:10.119Z,30.90
2022-09-11T13:06:43.838Z,31.08
2022-09-11T13:09:30.467Z,30.90
2022-09-11T13:12:26.504Z,30.89
2022-09-11T13:14:58.709Z,30.84
2022-09-11T13:17:32.423Z,30.50
2022-09-11T13:20:09.366Z,31.21
2022-09-11T13:22:38.508Z,30.71
2022-09-11T13:25:20.321Z,31.31
2022-09-11T13:28:01.439Z,31.26
2022-09-11T13:30:29.202Z,31.41
2022-09-11T13:33:08.370Z,31.08
2022-09-11T13:35:40.295Z,31.42
2022-09-11T13:38:18.202Z,31.15
2022-09-11T13:41:05.046Z,30.92
2022-09-11T13:43:37.711Z,31.60
2022-09-11T13:46:16.989Z,31.72
2022-09-11T13:48:46.411Z,31.86
2022-09-11T13:51:34.913Z,31.52
2022-09-11T13:54:07.509Z,31.42
2022-09-11T13:56:45.085Z,32.22
2022-09-11T13:59:35.280Z,32.38
2022-09-11T14:02:07.171Z,32.05
2022-09-11T14:04:42.085Z,32.18
2022-09-11T14:07:57.495Z,32.82
2022-09-11T14:10:26.822Z,36.17
2022-09-11T14:13:01.973Z,43.24
2022-09-11T14:15:49.620Z,46.05
2022-09-11T14:18:42.802Z,48.07
2022-09-11T14:21:17.018Z,48.28
2022-09-11T14:23:52.308Z,50.61
2022-09-11T14:26:22.954Z,51.65
2022-09-11T14:29:05.330Z,48.38
2022-09-11T14:31:37.469Z,46.36
2022-09-11T14:34:17.824Z,46.47
2022-09-11T14:37:03.586Z,45.44
2022-09-11T14:39:46.819Z,46.64
2022-09-11T14:42:18.064Z,48.22
2022-09-11T14:44:45.338Z,48.92
2022-09-11T14:47:17.542Z,47.30
2022-09-11T14:49:50.073Z,49.99
2022-09-11T14:52:20.948Z,50.00
2022-09-11T14:54:48.829Z,52.58
2022-09-11T14:57:20.934Z,47.62
2022-09-11T14:59:49.325Z,49.41
2022-09-11T15:02:23.416Z,52.19
2022-09-11T15:04:53.608Z,52.09
2022-09-11T15:07:24.508Z,49.37
2022-09-11T15:09:53.435Z,49.62
2022-09-11T15:12:22.084Z,51.10
2022-09-11T15:14:56.970Z,48.53
2022-09-11T15:17:25.603Z,46.82
2022-09-11T15:19:53.670Z,47.63
2022-09-11T15:22:21.552Z,49.27
2022-09-11T15:24:49.087Z,49.65
2022-09-11T15:27:17.148Z,50.63
2022-09-11T15:29:45.217Z,52.10
2022-09-11T15:32:12.530Z,51.89
2022-09-11T15:34:40.440Z,51.16
2022-09-11T15:37:07.749Z,51.29
2022-09-11T15:39:35.541Z,49.02
2022-09-11T15:42:03.540Z,48.95
2022-09-11T15:44:31.472Z,49.37
2022-09-11T15:46:59.094Z,50.25
2022-09-11T15:49:29.983Z,49.06
2022-09-11T15:51:58.062Z,47.25
2022-09-11T15:54:26.304Z,48.85
2022-09-11T15:56:54.165Z,48.80
2022-09-11T15:59:22.312Z,50.89
2022-09-11T16:01:49.961Z,50.86
2022-09-11T16:04:21.208Z,49.66
2022-09-11T16:06:49.271Z,50.57
2022-09-11T16:09:20.430Z,49.23
2022-09-11T16:11:49.552Z,47.49
2022-09-11T16:14:21.483Z,48.87
2022-09-11T16:16:49.208Z,47.38
2022-09-11T16:19:17.744Z,46.53
2022-09-11T16:21:45.663Z,48.48
2022-09-11T16:24:14.642Z,47.42
2022-09-11T16:26:44.128Z,45.89
2022-09-11T16:29:14.539Z,46.87
2022-09-11T16:31:42.774Z,44.73
2022-09-11T16:34:12.209Z,42.63
2022-09-11T16:36:41.822Z,37.25
2022-09-11T16:39:13.140Z,42.34
2022-09-11T16:41:40.771Z,44.34
2022-09-11T16:44:12.447Z,42.71
2022-09-11T16:46:41.013Z,42.52
2022-09-11T16:49:09.351Z,40.22
2022-09-11T16:51:36.857Z,39.35
2022-09-11T16:54:05.089Z,35.31
2022-09-11T16:56:32.381Z,39.00
2022-09-11T16:59:00.215Z,37.96
2022-09-11T17:01:28.427Z,35.66
2022-09-11T17:03:57.342Z,34.71
2022-09-11T17:06:30.370Z,32.87
2022-09-11T17:09:00.024Z,32.72
2022-09-11T17:11:30.924Z,32.01
2022-09-11T17:14:01.307Z,31.24
2022-09-11T17:16:32.142Z,30.93
2022-09-11T17:19:01.497Z,30.51
2022-09-11T17:21:35.883Z,30.05
2022-09-11T17:24:05.644Z,29.83
2022-09-11T17:26:34.191Z,29.14
2022-09-11T17:29:03.244Z,28.96
2022-09-11T17:31:31.839Z,28.58
2022-09-11T17:33:59.153Z,28.16
2022-09-11T17:36:27.176Z,28.20
2022-09-11T17:38:55.311Z,28.07
2022-09-11T17:41:22.643Z,28.02
2022-09-11T17:43:49.937Z,27.90
2022-09-11T17:46:23.632Z,27.82
2022-09-11T17:48:51.655Z,27.73
2022-09-11T17:51:22.039Z,27.43
2022-09-11T17:53:52.620Z,26.89
2022-09-11T17:56:22.532Z,27.06
2022-09-11T17:58:55.849Z,27.13
2022-09-11T18:01:25.316Z,27.08
2022-09-11T18:03:56.037Z,26.90
2022-09-11T18:06:36.527Z,26.82
2022-09-11T18:09:12.135Z,26.78
2022-09-11T18:11:45.578Z,26.77
2022-09-11T18:14:14.662Z,26.60
2022-09-11T18:16:45.266Z,26.58
2022-09-11T18:19:15.265Z,26.46
2022-09-11T18:21:46.652Z,26.35
2022-09-11T18:24:20.751Z,26.18
2022-09-11T18:26:50.720Z,26.32
2022-09-11T18:29:20.318Z,26.27
2022-09-11T18:31:52.857Z,26.21
2022-09-11T18:34:25.986Z,26.06
2022-09-11T18:36:53.572Z,26.06
2022-09-11T18:39:21.547Z,25.90
2022-09-11T18:41:50.425Z,25.80
2022-09-11T18:44:20.392Z,25.73
2022-09-11T18:46:51.705Z,25.42
2022-09-11T18:49:18.993Z,25.34
2022-09-11T18:51:46.521Z,25.27
2022-09-11T18:54:16.459Z,25.10
2022-09-11T18:56:44.580Z,25.29
2022-09-11T18:59:13.515Z,25.06
2022-09-11T19:01:41.679Z,24.95
2022-09-11T19:04:12.440Z,24.82
2022-09-11T19:06:40.387Z,24.95
2022-09-11T19:09:10.630Z,24.85
2022-09-11T19:11:38.632Z,24.62
2022-09-11T19:14:08.417Z,24.57
2022-09-11T19:16:38.317Z,24.48
2022-09-11T19:19:09.268Z,24.50
2022-09-11T19:21:40.883Z,24.46
2022-09-11T19:24:08.098Z,24.26
2022-09-11T19:26:42.265Z,24.08
2022-09-11T19:29:13.362Z,24.11
2022-09-11T19:31:41.377Z,24.10
2022-09-11T19:34:14.281Z,24.03
2022-09-11T19:36:42.069Z,23.84
2022-09-11T19:39:10.931Z,24.05
2022-09-11T19:41:39.336Z,23.99
2022-09-11T19:44:08.992Z,24.01
2022-09-11T19:46:38.304Z,23.95
2022-09-11T19:49:06.830Z,23.97
2022-09-11T19:51:37.285Z,23.94
2022-09-11T19:54:05.944Z,23.87
2022-09-11T19:56:37.436Z,24.07
2022-09-11T19:59:06.824Z,23.97
2022-09-11T20:01:34.636Z,23.88
2022-09-11T20:04:02.257Z,23.86
2022-09-11T20:06:32.164Z,23.58
2022-09-11T20:09:29.853Z,23.65
2022-09-11T20:11:49.005Z,23.25
2022-09-11T20:14:16.431Z,23.13
2022-09-11T20:16:44.235Z,22.98
2022-09-11T20:19:12.333Z,22.76
2022-09-11T20:21:40.721Z,22.81
2022-09-11T20:24:09.440Z,22.80
2022-09-11T20:26:36.947Z,22.72
2022-09-11T20:29:12.439Z,22.78
2022-09-11T20:31:47.655Z,22.55
2022-09-11T20:34:20.229Z,22.51
2022-09-11T20:36:47.596Z,22.07
2022-09-11T20:39:16.033Z,22.22
2022-09-11T20:41:44.325Z,22.53
2022-09-11T20:44:12.616Z,22.26
2022-09-11T20:46:40.729Z,22.15
2022-09-11T20:49:10.269Z,22.84
2022-09-11T20:51:37.790Z,22.24
2022-09-11T20:54:05.440Z,22.70
2022-09-11T20:56:34.645Z,22.24
2022-09-11T20:59:02.484Z,22.14
2022-09-11T21:01:34.198Z,22.08
2022-09-11T21:04:03.643Z,21.94
2022-09-11T21:06:33.059Z,22.30
2022-09-11T21:09:04.421Z,22.25
2022-09-11T21:11:31.800Z,22.72
2022-09-11T21:13:59.309Z,22.13
2022-09-11T21:16:27.778Z,21.78
2022-09-11T21:19:00.143Z,21.77
2022-09-11T21:21:29.428Z,21.49
2022-09-11T21:23:58.848Z,21.59
2022-09-11T21:26:28.711Z,21.55
2022-09-11T21:28:57.347Z,21.58
2022-09-11T21:31:25.533Z,21.43
2022-09-11T21:33:53.572Z,21.41
2022-09-11T21:36:21.324Z,21.38
2022-09-11T21:38:49.133Z,21.36
2022-09-11T21:41:16.753Z,21.61
2022-09-11T21:43:44.216Z,21.39
2022-09-11T21:46:11.835Z,21.61
2022-09-11T21:48:41.421Z,21.57
2022-09-11T21:51:18.621Z,21.30
2022-09-11T21:53:48.084Z,21.18
2022-09-11T21:56:19.326Z,21.14
2022-09-11T21:58:48.070Z,21.13
2022-09-11T22:01:15.550Z,20.66
2022-09-11T22:03:43.433Z,20.84
2022-09-11T22:06:11.930Z,21.01
2022-09-11T22:08:43.147Z,21.07
2022-09-11T22:11:11.542Z,20.94
2022-09-11T22:13:39.864Z,20.81
2022-09-11T22:16:09.921Z,20.86
2022-09-11T22:18:38.952Z,20.89
2022-09-11T22:21:08.461Z,20.73
2022-09-11T22:23:36.171Z,20.72
2022-09-11T22:26:08.874Z,20.85
2022-09-11T22:28:37.378Z,20.71
2022-09-11T22:31:15.703Z,20.43
2022-09-11T22:33:43.791Z,20.20
2022-09-11T22:36:19.733Z,20.36
2022-09-11T22:38:48.741Z,20.82
2022-09-11T22:41:17.140Z,20.29
2022-09-11T22:43:47.463Z,20.21
2022-09-11T22:46:16.042Z,20.11
2022-09-11T22:48:43.816Z,20.26
2022-09-11T22:51:11.300Z,20.29
2022-09-11T22:53:39.681Z,20.14
2022-09-11T22:56:07.283Z,20.24
2022-09-11T22:58:34.674Z,20.39
2022-09-11T23:01:03.647Z,20.21
2022-09-11T23:03:31.068Z,20.29
2022-09-11T23:06:18.738Z,20.76
2022-09-11T23:08:47.154Z,20.92
2022-09-11T23:11:18.760Z,20.47
2022-09-11T23:13:48.547Z,20.60
2022-09-11T23:16:19.245Z,20.69
2022-09-11T23:18:48.297Z,20.18
2022-09-11T23:21:15.662Z,20.01
2022-09-11T23:23:44.794Z,19.96
2022-09-11T23:26:14.004Z,19.94
2022-09-11T23:28:42.077Z,19.85
2022-09-11T23:31:28.718Z,19.75
2022-09-11T23:33:59.416Z,19.87
2022-09-11T23:36:28.475Z,19.52
2022-09-11T23:38:56.827Z,19.75
2022-09-11T23:41:24.600Z,19.69
2022-09-11T23:43:52.838Z,19.50
2022-09-11T23:46:20.296Z,19.84
2022-09-11T23:48:47.758Z,19.83
2022-09-11T23:51:15.646Z,20.25
2022-09-11T23:53:45.072Z,20.39
2022-09-11T23:56:14.394Z,20.31
2022-09-11T23:58:42.299Z,20.41
